sensor_id;sensor_type;location;lat;lon;timestamp;P1;durP1;ratioP1;P2;durP2;ratioP2
80910;SDS011;70359;51.420;7.032;2023-08-01T00:00:06;0.4;;;0.4;;
80910;SDS011;70359;51.420;7.032;2023-08-01T00:02:31;0.4;;;0.4;;
80910;SDS011;70359;51.420;7.032;2023-08-01T00:04:56;0.7;;;0.5;;
80910;SDS011;70359;51.420;7.032;2023-08-01T00:07:21;0.7;;;0.5;;
80910;SDS011;70359;51.420;7.032;2023-08-01T00:09:46;0.8;;;0.6;;
80910;SDS011;70359;51.420;7.032;2023-08-01T00:12:11;0.8;;;0.6;;
80910;SDS011;70359;51.420;7.032;2023-08-01T00:14:36;0.4;;;0.4;;
80910;SDS011;70359;51.420;7.032;2023-08-01T00:17:01;0.4;;;0.4;;
80910;SDS011;70359;51.420;7.032;2023-08-01T00:19:30;0.7;;;0.6;;
80910;SDS011;70359;51.420;7.032;2023-08-01T00:21:51;0.7;;;0.6;;
80910;SDS011;70359;51.420;7.032;2023-08-01T00:24:16;0.7;;;0.7;;
80910;SDS011;70359;51.420;7.032;2023-08-01T00:26:45;0.7;;;0.7;;
80910;SDS011;70359;51.420;7.032;2023-08-01T00:29:06;0.5;;;0.4;;
80910;SDS011;70359;51.420;7.032;2023-08-01T00:31:31;0.5;;;0.4;;
80910;SDS011;70359;51.420;7.032;2023-08-01T00:33:56;0.5;;;0.4;;
80910;SDS011;70359;51.420;7.032;2023-08-01T00:36:21;0.6;;;0.5;;
80910;SDS011;70359;51.420;7.032;2023-08-01T00:38:46;0.6;;;0.5;;
80910;SDS011;70359;51.420;7.032;2023-08-01T00:41:11;0.8;;;0.6;;
80910;SDS011;70359;51.420;7.032;2023-08-01T00:43:36;0.8;;;0.6;;
80910;SDS011;70359;51.420;7.032;2023-08-01T00:46:03;0.8;;;0.8;;
80910;SDS011;70359;51.420;7.032;2023-08-01T00:48:26;0.8;;;0.8;;
80910;SDS011;70359;51.420;7.032;2023-08-01T00:50:51;1.1;;;0.6;;
80910;SDS011;70359;51.420;7.032;2023-08-01T00:53:20;1.1;;;0.6;;
80910;SDS011;70359;51.420;7.032;2023-08-01T00:55:41;0.5;;;0.4;;
80910;SDS011;70359;51.420;7.032;2023-08-01T00:58:06;0.5;;;0.4;;
80910;SDS011;70359;51.420;7.032;2023-08-01T01:00:31;0.7;;;0.6;;
80910;SDS011;70359;51.420;7.032;2023-08-01T01:03:00;0.7;;;0.6;;
80910;SDS011;70359;51.420;7.032;2023-08-01T01:05:23;0.6;;;0.4;;
80910;SDS011;70359;51.420;7.032;2023-08-01T01:07:46;0.6;;;0.4;;
80910;SDS011;70359;51.420;7.032;2023-08-01T01:10:11;0.5;;;0.5;;
80910;SDS011;70359;51.420;7.032;2023-08-01T01:12:36;0.5;;;0.5;;
80910;SDS011;70359;51.420;7.032;2023-08-01T01:15:01;1.3;;;0.5;;
80910;SDS011;70359;51.420;7.032;2023-08-01T01:17:26;1.3;;;0.5;;
80910;SDS011;70359;51.420;7.032;2023-08-01T01:19:51;0.5;;;0.5;;
80910;SDS011;70359;51.420;7.032;2023-08-01T01:22:16;0.5;;;0.5;;
80910;SDS011;70359;51.420;7.032;2023-08-01T01:24:42;0.7;;;0.7;;
80910;SDS011;70359;51.420;7.032;2023-08-01T01:27:07;0.7;;;0.7;;
80910;SDS011;70359;51.420;7.032;2023-08-01T01:29:32;0.4;;;0.4;;
80910;SDS011;70359;51.420;7.032;2023-08-01T01:31:57;0.4;;;0.4;;
80910;SDS011;70359;51.420;7.032;2023-08-01T01:34:21;0.7;;;0.7;;
80910;SDS011;70359;51.420;7.032;2023-08-01T01:36:46;0.7;;;0.7;;
80910;SDS011;70359;51.420;7.032;2023-08-01T01:39:11;0.7;;;0.7;;
80910;SDS011;70359;51.420;7.032;2023-08-01T01:41:36;0.7;;;0.7;;
80910;SDS011;70359;51.420;7.032;2023-08-01T01:44:01;0.7;;;0.7;;
80910;SDS011;70359;51.420;7.032;2023-08-01T01:46:26;1.3;;;1.2;;
80910;SDS011;70359;51.420;7.032;2023-08-01T01:48:51;1.3;;;1.2;;
80910;SDS011;70359;51.420;7.032;2023-08-01T01:51:16;1.3;;;1.2;;
80910;SDS011;70359;51.420;7.032;2023-08-01T01:53:41;1.3;;;1.2;;
80910;SDS011;70359;51.420;7.032;2023-08-01T01:56:07;2;;;1.6;;
80910;SDS011;70359;51.420;7.032;2023-08-01T01:58:31;2;;;1.6;;
80910;SDS011;70359;51.420;7.032;2023-08-01T02:00:56;1.6;;;1.5;;
80910;SDS011;70359;51.420;7.032;2023-08-01T02:03:21;1.6;;;1.5;;
80910;SDS011;70359;51.420;7.032;2023-08-01T02:05:46;1.8;;;1.7;;
80910;SDS011;70359;51.420;7.032;2023-08-01T02:08:11;1.8;;;1.7;;
80910;SDS011;70359;51.420;7.032;2023-08-01T02:10:36;1.2;;;1.1;;
80910;SDS011;70359;51.420;7.032;2023-08-01T02:13:01;1.2;;;1.1;;
80910;SDS011;70359;51.420;7.032;2023-08-01T02:15:26;0.8;;;0.8;;
80910;SDS011;70359;51.420;7.032;2023-08-01T02:17:51;0.8;;;0.8;;
80910;SDS011;70359;51.420;7.032;2023-08-01T02:20:16;0.7;;;0.7;;
80910;SDS011;70359;51.420;7.032;2023-08-01T02:22:45;0.7;;;0.7;;
80910;SDS011;70359;51.420;7.032;2023-08-01T02:25:10;0.8;;;0.7;;
80910;SDS011;70359;51.420;7.032;2023-08-01T02:27:31;0.8;;;0.7;;
80910;SDS011;70359;51.420;7.032;2023-08-01T02:29:56;1.4;;;1.3;;
80910;SDS011;70359;51.420;7.032;2023-08-01T02:32:21;1.4;;;1.3;;
80910;SDS011;70359;51.420;7.032;2023-08-01T02:34:46;1.3;;;1.2;;
80910;SDS011;70359;51.420;7.032;2023-08-01T02:37:11;1.3;;;1.2;;
80910;SDS011;70359;51.420;7.032;2023-08-01T02:39:36;1.2;;;1.1;;
80910;SDS011;70359;51.420;7.032;2023-08-01T02:42:01;1.2;;;1.1;;
80910;SDS011;70359;51.420;7.032;2023-08-01T02:44:26;1.6;;;1.5;;
80910;SDS011;70359;51.420;7.032;2023-08-01T02:46:51;1.6;;;1.5;;
80910;SDS011;70359;51.420;7.032;2023-08-01T02:49:16;2;;;1.7;;
80910;SDS011;70359;51.420;7.032;2023-08-01T02:51:41;2;;;1.7;;
80910;SDS011;70359;51.420;7.032;2023-08-01T02:54:06;2;;;1.7;;
80910;SDS011;70359;51.420;7.032;2023-08-01T02:56:31;2;;;1.8;;
80910;SDS011;70359;51.420;7.032;2023-08-01T02:58:56;2;;;1.8;;
80910;SDS011;70359;51.420;7.032;2023-08-01T03:01:25;1.7;;;1.6;;
80910;SDS011;70359;51.420;7.032;2023-08-01T03:03:46;1.7;;;1.6;;
80910;SDS011;70359;51.420;7.032;2023-08-01T03:06:11;4.2;;;2.2;;
80910;SDS011;70359;51.420;7.032;2023-08-01T03:08:36;4.2;;;2.2;;
80910;SDS011;70359;51.420;7.032;2023-08-01T03:11:01;3.6;;;2.4;;
80910;SDS011;70359;51.420;7.032;2023-08-01T03:13:26;3.6;;;2.4;;
80910;SDS011;70359;51.420;7.032;2023-08-01T03:15:51;3.7;;;2.9;;
80910;SDS011;70359;51.420;7.032;2023-08-01T03:18:16;3.7;;;2.9;;
80910;SDS011;70359;51.420;7.032;2023-08-01T03:20:41;2.7;;;2.5;;
80910;SDS011;70359;51.420;7.032;2023-08-01T03:23:06;2.7;;;2.5;;
80910;SDS011;70359;51.420;7.032;2023-08-01T03:25:31;3.3;;;3;;
80910;SDS011;70359;51.420;7.032;2023-08-01T03:27:56;3.3;;;3;;
80910;SDS011;70359;51.420;7.032;2023-08-01T03:30:21;5.4;;;3.3;;
80910;SDS011;70359;51.420;7.032;2023-08-01T03:32:46;5.4;;;3.3;;
80910;SDS011;70359;51.420;7.032;2023-08-01T03:35:11;3.7;;;3.4;;
80910;SDS011;70359;51.420;7.032;2023-08-01T03:37:36;3.7;;;3.4;;
80910;SDS011;70359;51.420;7.032;2023-08-01T03:40:01;3.6;;;3.3;;
80910;SDS011;70359;51.420;7.032;2023-08-01T03:42:26;3.6;;;3.3;;
80910;SDS011;70359;51.420;7.032;2023-08-01T03:44:51;3.9;;;3.5;;
80910;SDS011;70359;51.420;7.032;2023-08-01T03:47:16;3.9;;;3.5;;
80910;SDS011;70359;51.420;7.032;2023-08-01T03:49:41;3.5;;;3.2;;
80910;SDS011;70359;51.420;7.032;2023-08-01T03:52:07;3.5;;;3.2;;
80910;SDS011;70359;51.420;7.032;2023-08-01T03:54:31;3.6;;;3.3;;
80910;SDS011;70359;51.420;7.032;2023-08-01T03:57:00;3.6;;;3.3;;
80910;SDS011;70359;51.420;7.032;2023-08-01T03:59:25;4;;;3.6;;
80910;SDS011;70359;51.420;7.032;2023-08-01T04:01:50;4;;;3.6;;
80910;SDS011;70359;51.420;7.032;2023-08-01T04:04:11;4;;;3.6;;
80910;SDS011;70359;51.420;7.032;2023-08-01T04:06:36;3.6;;;3.3;;
80910;SDS011;70359;51.420;7.032;2023-08-01T04:09:01;3.6;;;3.3;;
80910;SDS011;70359;51.420;7.032;2023-08-01T04:11:26;3.8;;;3.3;;
80910;SDS011;70359;51.420;7.032;2023-08-01T04:13:51;3.8;;;3.3;;
80910;SDS011;70359;51.420;7.032;2023-08-01T04:16:16;2.9;;;2.7;;
80910;SDS011;70359;51.420;7.032;2023-08-01T04:18:41;2.9;;;2.7;;
80910;SDS011;70359;51.420;7.032;2023-08-01T04:21:08;3.5;;;3.2;;
80910;SDS011;70359;51.420;7.032;2023-08-01T04:23:31;3.5;;;3.2;;
80910;SDS011;70359;51.420;7.032;2023-08-01T04:25:56;3.1;;;2.9;;
80910;SDS011;70359;51.420;7.032;2023-08-01T04:28:21;3.1;;;2.9;;
80910;SDS011;70359;51.420;7.032;2023-08-01T04:30:52;3.3;;;3;;
80910;SDS011;70359;51.420;7.032;2023-08-01T04:33:11;3.3;;;3;;
80910;SDS011;70359;51.420;7.032;2023-08-01T04:35:36;4.4;;;3.3;;
80910;SDS011;70359;51.420;7.032;2023-08-01T04:38:01;4.4;;;3.3;;
80910;SDS011;70359;51.420;7.032;2023-08-01T04:40:26;4;;;3.4;;
80910;SDS011;70359;51.420;7.032;2023-08-01T04:42:51;4;;;3.4;;
80910;SDS011;70359;51.420;7.032;2023-08-01T04:45:16;3.4;;;3.1;;
80910;SDS011;70359;51.420;7.032;2023-08-01T04:47:45;3.4;;;3.1;;
80910;SDS011;70359;51.420;7.032;2023-08-01T04:50:07;4.9;;;4;;
80910;SDS011;70359;51.420;7.032;2023-08-01T04:52:31;4.9;;;4;;
80910;SDS011;70359;51.420;7.032;2023-08-01T04:54:56;4.8;;;4.3;;
80910;SDS011;70359;51.420;7.032;2023-08-01T04:57:21;4.8;;;4.3;;
80910;SDS011;70359;51.420;7.032;2023-08-01T04:59:46;4.3;;;3.7;;
80910;SDS011;70359;51.420;7.032;2023-08-01T05:02:11;4.3;;;3.7;;
80910;SDS011;70359;51.420;7.032;2023-08-01T05:04:36;5.2;;;4.6;;
80910;SDS011;70359;51.420;7.032;2023-08-01T05:07:01;5.2;;;4.6;;
80910;SDS011;70359;51.420;7.032;2023-08-01T05:09:26;5.3;;;4.8;;
80910;SDS011;70359;51.420;7.032;2023-08-01T05:11:51;5.3;;;4.8;;
80910;SDS011;70359;51.420;7.032;2023-08-01T05:14:16;5.3;;;4.8;;
80910;SDS011;70359;51.420;7.032;2023-08-01T05:16:41;5.2;;;4.7;;
80910;SDS011;70359;51.420;7.032;2023-08-01T05:19:06;5.2;;;4.7;;
80910;SDS011;70359;51.420;7.032;2023-08-01T05:21:31;7;;;5.8;;
80910;SDS011;70359;51.420;7.032;2023-08-01T05:23:56;7;;;5.8;;
80910;SDS011;70359;51.420;7.032;2023-08-01T05:26:21;5.4;;;4.8;;
80910;SDS011;70359;51.420;7.032;2023-08-01T05:28:46;5.4;;;4.8;;
80910;SDS011;70359;51.420;7.032;2023-08-01T05:31:11;6.8;;;4.8;;
80910;SDS011;70359;51.420;7.032;2023-08-01T05:33:36;6.8;;;4.8;;
80910;SDS011;70359;51.420;7.032;2023-08-01T05:36:01;6.3;;;5.4;;
80910;SDS011;70359;51.420;7.032;2023-08-01T05:38:26;6.3;;;5.4;;
80910;SDS011;70359;51.420;7.032;2023-08-01T05:40:55;6.4;;;5.3;;
80910;SDS011;70359;51.420;7.032;2023-08-01T05:43:17;6.4;;;5.3;;
80910;SDS011;70359;51.420;7.032;2023-08-01T05:45:41;6;;;5.4;;
80910;SDS011;70359;51.420;7.032;2023-08-01T05:48:10;6;;;5.4;;
80910;SDS011;70359;51.420;7.032;2023-08-01T05:50:35;5.9;;;5.3;;
80910;SDS011;70359;51.420;7.032;2023-08-01T05:52:56;5.9;;;5.3;;
80910;SDS011;70359;51.420;7.032;2023-08-01T05:55:21;6.7;;;5.8;;
80910;SDS011;70359;51.420;7.032;2023-08-01T05:57:46;6.7;;;5.8;;
80910;SDS011;70359;51.420;7.032;2023-08-01T06:00:12;6.7;;;5.6;;
80910;SDS011;70359;51.420;7.032;2023-08-01T06:02:36;6.7;;;5.6;;
80910;SDS011;70359;51.420;7.032;2023-08-01T06:05:01;8.2;;;6.6;;
80910;SDS011;70359;51.420;7.032;2023-08-01T06:07:26;8.2;;;6.6;;
80910;SDS011;70359;51.420;7.032;2023-08-01T06:09:51;6.7;;;6;;
80910;SDS011;70359;51.420;7.032;2023-08-01T06:12:16;6.7;;;6;;
80910;SDS011;70359;51.420;7.032;2023-08-01T06:14:41;6.5;;;5.8;;
80910;SDS011;70359;51.420;7.032;2023-08-01T06:17:07;6.5;;;5.8;;
80910;SDS011;70359;51.420;7.032;2023-08-01T06:19:31;6.6;;;5.7;;
80910;SDS011;70359;51.420;7.032;2023-08-01T06:21:56;6.6;;;5.7;;
80910;SDS011;70359;51.420;7.032;2023-08-01T06:24:24;6.3;;;5.3;;
80910;SDS011;70359;51.420;7.032;2023-08-01T06:26:46;6.3;;;5.3;;
80910;SDS011;70359;51.420;7.032;2023-08-01T06:29:11;6.3;;;5.3;;
80910;SDS011;70359;51.420;7.032;2023-08-01T06:31:36;8;;;5.9;;
80910;SDS011;70359;51.420;7.032;2023-08-01T06:34:01;8;;;5.9;;
80910;SDS011;70359;51.420;7.032;2023-08-01T06:36:26;6.2;;;5.2;;
80910;SDS011;70359;51.420;7.032;2023-08-01T06:38:51;6.2;;;5.2;;
80910;SDS011;70359;51.420;7.032;2023-08-01T06:41:16;5.6;;;5;;
80910;SDS011;70359;51.420;7.032;2023-08-01T06:43:41;5.6;;;5;;
80910;SDS011;70359;51.420;7.032;2023-08-01T06:46:07;4.8;;;4.4;;
80910;SDS011;70359;51.420;7.032;2023-08-01T06:48:31;4.8;;;4.4;;
80910;SDS011;70359;51.420;7.032;2023-08-01T06:50:56;6.7;;;4.6;;
80910;SDS011;70359;51.420;7.032;2023-08-01T06:53:21;6.7;;;4.6;;
80910;SDS011;70359;51.420;7.032;2023-08-01T06:55:50;5.2;;;4.3;;
80910;SDS011;70359;51.420;7.032;2023-08-01T06:58:12;5.2;;;4.3;;
80910;SDS011;70359;51.420;7.032;2023-08-01T07:00:37;4.9;;;4.4;;
80910;SDS011;70359;51.420;7.032;2023-08-01T07:03:02;4.9;;;4.4;;
80910;SDS011;70359;51.420;7.032;2023-08-01T07:05:30;5.4;;;4.4;;
80910;SDS011;70359;51.420;7.032;2023-08-01T07:07:52;5.4;;;4.4;;
80910;SDS011;70359;51.420;7.032;2023-08-01T07:10:17;5.2;;;4;;
80910;SDS011;70359;51.420;7.032;2023-08-01T07:12:42;5.2;;;4;;
80910;SDS011;70359;51.420;7.032;2023-08-01T07:15:08;4.2;;;3.8;;
80910;SDS011;70359;51.420;7.032;2023-08-01T07:17:32;4.2;;;3.8;;
80910;SDS011;70359;51.420;7.032;2023-08-01T07:19:57;4.7;;;3.7;;
80910;SDS011;70359;51.420;7.032;2023-08-01T07:22:22;4.7;;;3.7;;
80910;SDS011;70359;51.420;7.032;2023-08-01T07:24:47;4;;;3.6;;
80910;SDS011;70359;51.420;7.032;2023-08-01T07:27:12;4;;;3.6;;
80910;SDS011;70359;51.420;7.032;2023-08-01T07:29:37;4.4;;;3.7;;
80910;SDS011;70359;51.420;7.032;2023-08-01T07:32:02;4.4;;;3.7;;
80910;SDS011;70359;51.420;7.032;2023-08-01T07:34:28;3.6;;;3.2;;
80910;SDS011;70359;51.420;7.032;2023-08-01T07:36:56;3.6;;;3.2;;
80910;SDS011;70359;51.420;7.032;2023-08-01T07:39:17;3.6;;;3.2;;
80910;SDS011;70359;51.420;7.032;2023-08-01T07:41:46;4.1;;;3.7;;
80910;SDS011;70359;51.420;7.032;2023-08-01T07:44:07;4.1;;;3.7;;
80910;SDS011;70359;51.420;7.032;2023-08-01T07:46:32;4.8;;;3.3;;
80910;SDS011;70359;51.420;7.032;2023-08-01T07:48:57;4.8;;;3.3;;
80910;SDS011;70359;51.420;7.032;2023-08-01T07:51:22;3.6;;;3.3;;
80910;SDS011;70359;51.420;7.032;2023-08-01T07:53:47;3.6;;;3.3;;
80910;SDS011;70359;51.420;7.032;2023-08-01T07:56:12;3.4;;;3.1;;
80910;SDS011;70359;51.420;7.032;2023-08-01T07:58:37;3.4;;;3.1;;
80910;SDS011;70359;51.420;7.032;2023-08-01T08:01:06;4;;;3.6;;
80910;SDS011;70359;51.420;7.032;2023-08-01T08:03:27;4;;;3.6;;
80910;SDS011;70359;51.420;7.032;2023-08-01T08:05:56;5.2;;;3.4;;
80910;SDS011;70359;51.420;7.032;2023-08-01T08:08:17;5.2;;;3.4;;
80910;SDS011;70359;51.420;7.032;2023-08-01T08:10:42;2.9;;;2.5;;
80910;SDS011;70359;51.420;7.032;2023-08-01T08:13:07;2.9;;;2.5;;
80910;SDS011;70359;51.420;7.032;2023-08-01T08:15:32;3.2;;;2.9;;
80910;SDS011;70359;51.420;7.032;2023-08-01T08:17:57;3.2;;;2.9;;
80910;SDS011;70359;51.420;7.032;2023-08-01T08:20:26;3.7;;;3.2;;
80910;SDS011;70359;51.420;7.032;2023-08-01T08:22:47;3.7;;;3.2;;
80910;SDS011;70359;51.420;7.032;2023-08-01T08:25:16;4;;;3.6;;
80910;SDS011;70359;51.420;7.032;2023-08-01T08:27:37;4;;;3.6;;
80910;SDS011;70359;51.420;7.032;2023-08-01T08:30:02;3.2;;;2.9;;
80910;SDS011;70359;51.420;7.032;2023-08-01T08:32:27;3.2;;;2.9;;
80910;SDS011;70359;51.420;7.032;2023-08-01T08:34:52;3.6;;;3.2;;
80910;SDS011;70359;51.420;7.032;2023-08-01T08:37:17;3.6;;;3.2;;
80910;SDS011;70359;51.420;7.032;2023-08-01T08:39:42;3.5;;;3;;
80910;SDS011;70359;51.420;7.032;2023-08-01T08:42:11;3.5;;;3;;
80910;SDS011;70359;51.420;7.032;2023-08-01T08:44:42;3.3;;;3;;
80910;SDS011;70359;51.420;7.032;2023-08-01T08:47:02;3.3;;;3;;
80910;SDS011;70359;51.420;7.032;2023-08-01T08:49:24;3.3;;;3;;
80910;SDS011;70359;51.420;7.032;2023-08-01T08:51:47;3.5;;;3.2;;
80910;SDS011;70359;51.420;7.032;2023-08-01T08:54:12;3.5;;;3.2;;
80910;SDS011;70359;51.420;7.032;2023-08-01T08:56:37;3.6;;;3.1;;
80910;SDS011;70359;51.420;7.032;2023-08-01T08:59:02;3.6;;;3.1;;
80910;SDS011;70359;51.420;7.032;2023-08-01T09:01:27;6.6;;;3.3;;
80910;SDS011;70359;51.420;7.032;2023-08-01T09:03:56;6.6;;;3.3;;
80910;SDS011;70359;51.420;7.032;2023-08-01T09:06:20;3.3;;;2.8;;
80910;SDS011;70359;51.420;7.032;2023-08-01T09:08:49;3.3;;;2.8;;
80910;SDS011;70359;51.420;7.032;2023-08-01T09:11:07;6.6;;;3.2;;
80910;SDS011;70359;51.420;7.032;2023-08-01T09:13:32;6.6;;;3.2;;
80910;SDS011;70359;51.420;7.032;2023-08-01T09:15:57;3;;;2.7;;
80910;SDS011;70359;51.420;7.032;2023-08-01T09:18:26;3;;;2.7;;
80910;SDS011;70359;51.420;7.032;2023-08-01T09:20:49;3.7;;;2.9;;
80910;SDS011;70359;51.420;7.032;2023-08-01T09:23:16;3.7;;;2.9;;
80910;SDS011;70359;51.420;7.032;2023-08-01T09:25:37;3.3;;;2.7;;
80910;SDS011;70359;51.420;7.032;2023-08-01T09:28:02;3.3;;;2.7;;
80910;SDS011;70359;51.420;7.032;2023-08-01T09:30:31;2.6;;;2.4;;
80910;SDS011;70359;51.420;7.032;2023-08-01T09:32:55;2.6;;;2.4;;
80910;SDS011;70359;51.420;7.032;2023-08-01T09:35:17;3.2;;;2.5;;
80910;SDS011;70359;51.420;7.032;2023-08-01T09:37:43;3.2;;;2.5;;
80910;SDS011;70359;51.420;7.032;2023-08-01T09:40:08;3.5;;;2.2;;
80910;SDS011;70359;51.420;7.032;2023-08-01T09:42:41;3.5;;;2.2;;
80910;SDS011;70359;51.420;7.032;2023-08-01T09:45:01;2.6;;;2.4;;
80910;SDS011;70359;51.420;7.032;2023-08-01T09:47:22;2.6;;;2.4;;
80910;SDS011;70359;51.420;7.032;2023-08-01T09:49:53;4.3;;;2.8;;
80910;SDS011;70359;51.420;7.032;2023-08-01T09:52:25;4.3;;;2.8;;
80910;SDS011;70359;51.420;7.032;2023-08-01T09:54:42;2.9;;;2.3;;
80910;SDS011;70359;51.420;7.032;2023-08-01T09:57:03;2.9;;;2.3;;
80910;SDS011;70359;51.420;7.032;2023-08-01T09:59:27;2.9;;;2.3;;
80910;SDS011;70359;51.420;7.032;2023-08-01T10:01:53;3.8;;;2.7;;
80910;SDS011;70359;51.420;7.032;2023-08-01T10:04:18;3.8;;;2.7;;
80910;SDS011;70359;51.420;7.032;2023-08-01T10:06:44;2.4;;;2.1;;
80910;SDS011;70359;51.420;7.032;2023-08-01T10:09:10;2.4;;;2.1;;
80910;SDS011;70359;51.420;7.032;2023-08-01T10:11:34;2.7;;;2.2;;
80910;SDS011;70359;51.420;7.032;2023-08-01T10:13:57;2.7;;;2.2;;
80910;SDS011;70359;51.420;7.032;2023-08-01T10:16:23;2.6;;;2.4;;
80910;SDS011;70359;51.420;7.032;2023-08-01T10:18:51;2.6;;;2.4;;
80910;SDS011;70359;51.420;7.032;2023-08-01T10:21:14;3.5;;;3;;
80910;SDS011;70359;51.420;7.032;2023-08-01T10:23:37;3.5;;;3;;
80910;SDS011;70359;51.420;7.032;2023-08-01T10:26:04;3.7;;;2.7;;
80910;SDS011;70359;51.420;7.032;2023-08-01T10:28:36;3.7;;;2.7;;
80910;SDS011;70359;51.420;7.032;2023-08-01T10:30:52;2.9;;;2.7;;
80910;SDS011;70359;51.420;7.032;2023-08-01T10:33:21;2.9;;;2.7;;
80910;SDS011;70359;51.420;7.032;2023-08-01T10:35:42;3.8;;;2.8;;
80910;SDS011;70359;51.420;7.032;2023-08-01T10:38:09;3.8;;;2.8;;
80910;SDS011;70359;51.420;7.032;2023-08-01T10:40:37;3.5;;;2.9;;
80910;SDS011;70359;51.420;7.032;2023-08-01T10:42:57;3.5;;;2.9;;
80910;SDS011;70359;51.420;7.032;2023-08-01T10:45:25;4.6;;;3.2;;
80910;SDS011;70359;51.420;7.032;2023-08-01T10:47:52;4.6;;;3.2;;
80910;SDS011;70359;51.420;7.032;2023-08-01T10:50:17;4.3;;;2.6;;
80910;SDS011;70359;51.420;7.032;2023-08-01T10:52:37;4.3;;;2.6;;
80910;SDS011;70359;51.420;7.032;2023-08-01T10:55:03;3.9;;;2.4;;
80910;SDS011;70359;51.420;7.032;2023-08-01T10:57:28;3.9;;;2.4;;
80910;SDS011;70359;51.420;7.032;2023-08-01T10:59:57;2.7;;;2.3;;
80910;SDS011;70359;51.420;7.032;2023-08-01T11:02:24;2.7;;;2.3;;
80910;SDS011;70359;51.420;7.032;2023-08-01T11:04:43;2;;;1.9;;
80910;SDS011;70359;51.420;7.032;2023-08-01T11:07:11;2;;;1.9;;
80910;SDS011;70359;51.420;7.032;2023-08-01T11:09:32;2;;;1.9;;
80910;SDS011;70359;51.420;7.032;2023-08-01T11:11:58;2.9;;;2.2;;
80910;SDS011;70359;51.420;7.032;2023-08-01T11:14:26;2.9;;;2.2;;
80910;SDS011;70359;51.420;7.032;2023-08-01T11:16:53;2.3;;;2.1;;
80910;SDS011;70359;51.420;7.032;2023-08-01T11:19:22;2.3;;;2.1;;
80910;SDS011;70359;51.420;7.032;2023-08-01T11:21:37;2.6;;;2.2;;
80910;SDS011;70359;51.420;7.032;2023-08-01T11:24:09;2.6;;;2.2;;
80910;SDS011;70359;51.420;7.032;2023-08-01T11:26:27;2.8;;;2.4;;
80910;SDS011;70359;51.420;7.032;2023-08-01T11:28:52;2.8;;;2.4;;
80910;SDS011;70359;51.420;7.032;2023-08-01T11:31:17;2.5;;;2.3;;
80910;SDS011;70359;51.420;7.032;2023-08-01T11:33:54;2.5;;;2.3;;
80910;SDS011;70359;51.420;7.032;2023-08-01T11:36:11;5.1;;;4.2;;
80910;SDS011;70359;51.420;7.032;2023-08-01T11:38:38;5.1;;;4.2;;
80910;SDS011;70359;51.420;7.032;2023-08-01T11:40:57;2.1;;;1.9;;
80910;SDS011;70359;51.420;7.032;2023-08-01T11:43:22;2.1;;;1.9;;
80910;SDS011;70359;51.420;7.032;2023-08-01T11:45:55;1.9;;;1.7;;
80910;SDS011;70359;51.420;7.032;2023-08-01T11:48:12;1.9;;;1.7;;
80910;SDS011;70359;51.420;7.032;2023-08-01T11:50:38;2;;;1.7;;
80910;SDS011;70359;51.420;7.032;2023-08-01T11:53:02;2;;;1.7;;
80910;SDS011;70359;51.420;7.032;2023-08-01T11:55:27;1.7;;;1.6;;
80910;SDS011;70359;51.420;7.032;2023-08-01T11:57:57;1.7;;;1.6;;
80910;SDS011;70359;51.420;7.032;2023-08-01T12:00:21;2.6;;;2.4;;
80910;SDS011;70359;51.420;7.032;2023-08-01T12:02:42;2.6;;;2.4;;
80910;SDS011;70359;51.420;7.032;2023-08-01T12:05:20;6.2;;;2.1;;
80910;SDS011;70359;51.420;7.032;2023-08-01T12:07:36;6.2;;;2.1;;
80910;SDS011;70359;51.420;7.032;2023-08-01T12:10:00;2.1;;;1.9;;
80910;SDS011;70359;51.420;7.032;2023-08-01T12:12:22;2.1;;;1.9;;
80910;SDS011;70359;51.420;7.032;2023-08-01T12:14:48;3;;;2.2;;
80910;SDS011;70359;51.420;7.032;2023-08-01T12:17:12;3;;;2.2;;
80910;SDS011;70359;51.420;7.032;2023-08-01T12:19:37;3;;;2.2;;
80910;SDS011;70359;51.420;7.032;2023-08-01T12:22:02;1.8;;;1.7;;
80910;SDS011;70359;51.420;7.032;2023-08-01T12:24:27;1.8;;;1.7;;
80910;SDS011;70359;51.420;7.032;2023-08-01T12:26:52;2.3;;;2.1;;
80910;SDS011;70359;51.420;7.032;2023-08-01T12:29:17;2.3;;;2.1;;
80910;SDS011;70359;51.420;7.032;2023-08-01T12:31:44;3.7;;;1.9;;
80910;SDS011;70359;51.420;7.032;2023-08-01T12:34:07;3.7;;;1.9;;
80910;SDS011;70359;51.420;7.032;2023-08-01T12:36:32;3.8;;;2.2;;
80910;SDS011;70359;51.420;7.032;2023-08-01T12:38:57;3.8;;;2.2;;
80910;SDS011;70359;51.420;7.032;2023-08-01T12:41:22;2.1;;;2;;
80910;SDS011;70359;51.420;7.032;2023-08-01T12:43:47;2.1;;;2;;
80910;SDS011;70359;51.420;7.032;2023-08-01T12:46:12;2.6;;;1.8;;
80910;SDS011;70359;51.420;7.032;2023-08-01T12:48:37;2.6;;;1.8;;
80910;SDS011;70359;51.420;7.032;2023-08-01T12:51:02;2.7;;;2.5;;
80910;SDS011;70359;51.420;7.032;2023-08-01T12:53:27;2.7;;;2.5;;
80910;SDS011;70359;51.420;7.032;2023-08-01T12:55:54;2.6;;;2.4;;
80910;SDS011;70359;51.420;7.032;2023-08-01T12:58:17;2.6;;;2.4;;
80910;SDS011;70359;51.420;7.032;2023-08-01T13:00:43;3.1;;;2.7;;
80910;SDS011;70359;51.420;7.032;2023-08-01T13:03:07;3.1;;;2.7;;
80910;SDS011;70359;51.420;7.032;2023-08-01T13:05:33;2.4;;;2.2;;
80910;SDS011;70359;51.420;7.032;2023-08-01T13:07:57;2.4;;;2.2;;
80910;SDS011;70359;51.420;7.032;2023-08-01T13:10:29;4.1;;;1.9;;
80910;SDS011;70359;51.420;7.032;2023-08-01T13:12:51;4.1;;;1.9;;
80910;SDS011;70359;51.420;7.032;2023-08-01T13:15:17;1.7;;;1.6;;
80910;SDS011;70359;51.420;7.032;2023-08-01T13:17:38;1.7;;;1.6;;
80910;SDS011;70359;51.420;7.032;2023-08-01T13:20:03;2;;;1.8;;
80910;SDS011;70359;51.420;7.032;2023-08-01T13:22:27;2;;;1.8;;
80910;SDS011;70359;51.420;7.032;2023-08-01T13:24:53;2.3;;;2.1;;
80910;SDS011;70359;51.420;7.032;2023-08-01T13:27:21;2.3;;;2.1;;
80910;SDS011;70359;51.420;7.032;2023-08-01T13:29:42;2.3;;;2.1;;
80910;SDS011;70359;51.420;7.032;2023-08-01T13:32:08;2.3;;;1.4;;
80910;SDS011;70359;51.420;7.032;2023-08-01T13:34:32;2.3;;;1.4;;
80910;SDS011;70359;51.420;7.032;2023-08-01T13:36:57;1.4;;;1.3;;
80910;SDS011;70359;51.420;7.032;2023-08-01T13:39:22;1.4;;;1.3;;
80910;SDS011;70359;51.420;7.032;2023-08-01T13:41:47;2;;;1.5;;
80910;SDS011;70359;51.420;7.032;2023-08-01T13:44:12;2;;;1.5;;
80910;SDS011;70359;51.420;7.032;2023-08-01T13:46:37;1.2;;;1.1;;
80910;SDS011;70359;51.420;7.032;2023-08-01T13:49:02;1.2;;;1.1;;
80910;SDS011;70359;51.420;7.032;2023-08-01T13:51:27;1.4;;;1.3;;
80910;SDS011;70359;51.420;7.032;2023-08-01T13:53:57;1.4;;;1.3;;
80910;SDS011;70359;51.420;7.032;2023-08-01T13:56:21;1.2;;;1;;
80910;SDS011;70359;51.420;7.032;2023-08-01T13:58:42;1.2;;;1;;
80910;SDS011;70359;51.420;7.032;2023-08-01T14:01:09;1.4;;;1.2;;
80910;SDS011;70359;51.420;7.032;2023-08-01T14:03:33;1.4;;;1.2;;
80910;SDS011;70359;51.420;7.032;2023-08-01T14:06:03;1.7;;;1.4;;
80910;SDS011;70359;51.420;7.032;2023-08-01T14:08:22;1.7;;;1.4;;
80910;SDS011;70359;51.420;7.032;2023-08-01T14:10:47;1.2;;;1.1;;
80910;SDS011;70359;51.420;7.032;2023-08-01T14:13:13;1.2;;;1.1;;
80910;SDS011;70359;51.420;7.032;2023-08-01T14:15:38;1.6;;;1.5;;
80910;SDS011;70359;51.420;7.032;2023-08-01T14:18:03;1.6;;;1.5;;
80910;SDS011;70359;51.420;7.032;2023-08-01T14:20:28;1.3;;;1.2;;
80910;SDS011;70359;51.420;7.032;2023-08-01T14:22:53;1.3;;;1.2;;
80910;SDS011;70359;51.420;7.032;2023-08-01T14:25:22;1.6;;;1.5;;
80910;SDS011;70359;51.420;7.032;2023-08-01T14:27:43;1.6;;;1.5;;
80910;SDS011;70359;51.420;7.032;2023-08-01T14:30:12;1.5;;;1.2;;
80910;SDS011;70359;51.420;7.032;2023-08-01T14:32:36;1.5;;;1.2;;
80910;SDS011;70359;51.420;7.032;2023-08-01T14:34:58;4.6;;;1.3;;
80910;SDS011;70359;51.420;7.032;2023-08-01T14:37:23;4.6;;;1.3;;
80910;SDS011;70359;51.420;7.032;2023-08-01T14:39:48;4.6;;;1.3;;
80910;SDS011;70359;51.420;7.032;2023-08-01T14:42:13;1.3;;;1;;
80910;SDS011;70359;51.420;7.032;2023-08-01T14:44:38;1.3;;;1;;
80910;SDS011;70359;51.420;7.032;2023-08-01T14:47:03;1.2;;;1.1;;
80910;SDS011;70359;51.420;7.032;2023-08-01T14:49:28;1.2;;;1.1;;
80910;SDS011;70359;51.420;7.032;2023-08-01T14:51:53;2.8;;;1.5;;
80910;SDS011;70359;51.420;7.032;2023-08-01T14:54:18;2.8;;;1.5;;
80910;SDS011;70359;51.420;7.032;2023-08-01T14:56:43;1.5;;;1.2;;
80910;SDS011;70359;51.420;7.032;2023-08-01T14:59:08;1.5;;;1.2;;
80910;SDS011;70359;51.420;7.032;2023-08-01T15:01:33;1.2;;;1.1;;
80910;SDS011;70359;51.420;7.032;2023-08-01T15:04:02;1.2;;;1.1;;